Alisal, California
Current Conditions -  °F | °C
As of 3:53 PM on Friday 28 Nov 2014 (Local Time) from KSNS Reporting Station
Clear Clear  
Wind Chill: 63°   Ceiling: Unl
Heat Index: 63°   Visibility: 10mi
Dew Point: 46°   Wind: 8mph
Humidity: 54%   Direction: 260°W
Pressure: 29.92"   Gusts: NA
Location:  36.6786°N, 121.613°W
Report Text: KSNS 282353Z AUTO 26007KT 10SM CLR 17/08 A2992 RMK AO2 SLP139 T01720078 10200 20128 56010 TSNO
Loading
Personal Weather Stations






























Interactive Weather Map New forecast layout! Learn more

10-Day Weather Forecast

Advertisements
Track Severe Weather on mobile